KMDD

Details ICAO KMDD
Name MIDLAND AIRPARK
Region United States
Timezone America/Chicago (UTC-6.0)
Plans Departing 4
Arriving 7
Stats Elevation 2,803 ft / 854 m (AMSL)
Location 32.036194° -102.101022°
Runways 2
Magnetic Variation 6.204° E
Sunrise 2017-12-14 13:42:32 UTC / 2017-12-14 07:42:32 Local
Sunset 2017-12-14 23:46:42 UTC / 2017-12-14 17:46:42 Local
Advertisement - Login to hide

Runways

ID Width Length Bearing (true) Bearing (mag) Surface Threshold Offset Overrun Length
07 75 ft / 23 m 5,014 ft / 1,528 m 74.89° 68.69° Asphalt 0 ft / 0 m 0 ft / 0 m
16 75 ft / 23 m 3,988 ft / 1,216 m 165.00° 158.80° Asphalt 0 ft / 0 m 0 ft / 0 m
25 75 ft / 23 m 5,014 ft / 1,528 m 254.90° 248.70° Asphalt 0 ft / 0 m 0 ft / 0 m
34 75 ft / 23 m 3,988 ft / 1,216 m 345.00° 338.80° Asphalt 0 ft / 0 m 0 ft / 0 m

Map

Weather


0- 5 10 15 20 25 30 35+ Temperature / ° C

Clouds and Precipitation
Forecast for 2017-12-14 18:00 UTC. Updated 2 hours ago

Ground ~20,000 ft ~40,000 ft Winds

METAR

KMDD 141455Z AUTO 04010KT 10SM CLR 05/M04 A3007 RMK AO2 T00521045

TAF

Not found

Frequencies

Recorded 118.12 MHz AWOS 3
Clearance 121.80 MHz CLNC DEL
Unicom 122.70 MHz CTAF/UNICOM
Approach 124.60 MHz APP/DEP
Warning: Do not use this data for real-world aviation or navigation. No guarantee of current accuracy is given.